Time,TemperatureF,DewpointF,PressureIn,WindDirection,WindDirectionDegrees,WindSpeedMPH,WindSpeedGustMPH,Humidity,HourlyPrecipIn,Conditions,Clouds,dailyrainin,SoftwareType,DateUTC
2013-04-10 00:02:00,64.0,35.8,-100.00,NW,315,0.0,0.0,35,-99.99,,,-99.99,WSDL version 423,2013-04-10 04:02:00,
2013-04-10 00:05:00,63.9,35.7,-100.00,NW,315,0.0,0.0,35,-99.99,,,-99.99,WSDL version 423,2013-04-10 04:05:00,
2013-04-10 00:11:00,63.9,35.7,-100.00,NW,315,0.0,0.0,35,-99.99,,,-99.99,WSDL version 423,2013-04-10 04:11:00,
2013-04-10 00:17:00,63.9,35.7,-100.00,NW,315,0.0,0.0,35,-99.99,,,-99.99,WSDL version 423,2013-04-10 04:17:00,
2013-04-10 00:23:00,63.9,35.7,-100.00,NW,315,0.0,0.0,35,-99.99,,,-99.99,WSDL version 423,2013-04-10 04:23:00,
2013-04-10 00:29:00,63.9,35.7,-100.00,NW,315,0.0,0.0,35,-99.99,,,-99.99,WSDL version 423,2013-04-10 04:29:00,
2013-04-10 00:35:00,63.9,36.3,-100.00,NW,315,0.0,0.0,36,-99.99,,,-99.99,WSDL version 423,2013-04-10 04:35:00,
2013-04-10 00:41:00,63.9,36.4,-100.00,NW,315,0.0,0.0,36,-99.99,,,-99.99,WSDL version 423,2013-04-10 04:41:00,
2013-04-10 00:47:00,63.9,36.4,-100.00,NW,315,0.0,0.0,36,-99.99,,,-99.99,WSDL version 423,2013-04-10 04:47:00,
2013-04-10 00:53:00,63.7,36.3,-100.00,NW,315,0.0,0.0,36,-99.99,,,-99.99,WSDL version 423,2013-04-10 04:53:00,
2013-04-10 01:01:00,63.5,36.1,-100.00,NW,315,0.0,0.0,36,-99.99,,,-99.99,WSDL version 423,2013-04-10 05:01:00,
2013-04-10 01:07:00,63.5,36.7,-100.00,NW,315,0.0,0.0,37,-99.99,,,-99.99,WSDL version 423,2013-04-10 05:07:00,
2013-04-10 01:13:00,63.4,36.7,-100.00,NW,315,0.0,0.0,37,-99.99,,,-99.99,WSDL version 423,2013-04-10 05:13:00,
2013-04-10 01:19:00,63.3,36.6,-100.00,NW,315,0.0,0.0,37,-99.99,,,-99.99,WSDL version 423,2013-04-10 05:19:00,
2013-04-10 01:25:00,63.3,37.3,-100.00,NW,315,0.0,0.0,38,-99.99,,,-99.99,WSDL version 423,2013-04-10 05:25:00,
2013-04-10 01:31:00,63.4,37.4,-100.00,South,180,0.0,0.0,38,-99.99,,,-99.99,WSDL version 423,2013-04-10 05:31:00,
2013-04-10 01:37:00,63.5,38.1,-100.00,South,180,0.0,0.0,39,-99.99,,,-99.99,WSDL version 423,2013-04-10 05:37:00,
2013-04-10 01:43:00,63.5,38.1,-100.00,South,180,0.0,0.0,39,-99.99,,,-99.99,WSDL version 423,2013-04-10 05:43:00,
2013-04-10 01:51:00,63.4,38.7,-100.00,South,180,0.0,0.0,40,-99.99,,,-99.99,WSDL version 423,2013-04-10 05:51:00,
2013-04-10 01:57:00,63.3,38.8,-100.00,South,180,0.0,0.0,41,-99.99,,,-99.99,WSDL version 423,2013-04-10 05:57:00,
2013-04-10 02:03:00,63.1,39.0,-100.00,South,180,0.0,0.0,41,-99.99,,,-99.99,WSDL version 423,2013-04-10 06:03:00,
2013-04-10 02:09:00,63.0,39.1,-100.00,South,180,0.0,0.0,42,-99.99,,,-99.99,WSDL version 423,2013-04-10 06:09:00,
2013-04-10 02:15:00,63.0,39.5,-100.00,East,90,0.0,0.0,42,-99.99,,,-99.99,WSDL version 423,2013-04-10 06:15:00,
2013-04-10 02:23:00,63.0,40.1,-100.00,South,180,0.0,0.0,43,-99.99,,,-99.99,WSDL version 423,2013-04-10 06:23:00,
2013-04-10 02:29:00,63.0,40.2,-100.00,SE,141,0.0,0.0,43,-99.99,,,-99.99,WSDL version 423,2013-04-10 06:29:00,
2013-04-10 02:35:00,63.0,40.6,-100.00,SE,135,0.0,0.0,44,-99.99,,,-99.99,WSDL version 423,2013-04-10 06:35:00,
2013-04-10 02:41:00,63.0,40.7,-100.00,SE,135,0.0,0.0,44,-99.99,,,-99.99,WSDL version 423,2013-04-10 06:41:00,
2013-04-10 02:47:00,63.1,40.9,-100.00,SW,214,0.0,0.0,44,-99.99,,,-99.99,WSDL version 423,2013-04-10 06:47:00,
2013-04-10 02:53:00,63.4,41.3,-100.00,SSW,200,0.0,0.0,45,-99.99,,,-99.99,WSDL version 423,2013-04-10 06:53:00,
2013-04-10 03:01:00,63.6,41.9,-100.00,SSW,195,0.0,0.0,45,-99.99,,,-99.99,WSDL version 423,2013-04-10 07:01:00,
2013-04-10 03:07:00,63.7,42.0,-100.00,SW,225,0.0,1.1,45,-99.99,,,-99.99,WSDL version 423,2013-04-10 07:07:00,
2013-04-10 03:13:00,64.0,42.2,-100.00,ESE,110,0.5,1.6,45,-99.99,,,-99.99,WSDL version 423,2013-04-10 07:13:00,
2013-04-10 03:19:00,64.2,42.6,-100.00,ESE,113,0.5,2.5,45,-99.99,,,-99.99,WSDL version 423,2013-04-10 07:19:00,
2013-04-10 03:25:00,64.3,42.9,-100.00,ESE,121,0.3,2.2,46,-99.99,,,-99.99,WSDL version 423,2013-04-10 07:25:00,
2013-04-10 03:31:00,64.2,43.0,-100.00,East,98,0.0,2.2,46,-99.99,,,-99.99,WSDL version 423,2013-04-10 07:31:00,
2013-04-10 03:37:00,64.2,43.1,-100.00,ESE,113,0.5,2.5,46,-99.99,,,-99.99,WSDL version 423,2013-04-10 07:37:00,
2013-04-10 03:43:00,64.4,43.2,-100.00,SE,135,0.0,2.5,46,-99.99,,,-99.99,WSDL version 423,2013-04-10 07:43:00,
2013-04-10 03:49:00,64.4,43.2,-100.00,SSE,152,0.4,1.6,46,-99.99,,,-99.99,WSDL version 423,2013-04-10 07:49:00,
2013-04-10 03:55:00,64.5,44.1,-100.00,WSW,245,1.0,2.0,48,-99.99,,,-99.99,WSDL version 423,2013-04-10 07:55:00,
2013-04-10 04:01:00,64.7,45.1,-100.00,ESE,123,2.0,4.0,48,-99.99,,,-99.99,WSDL version 423,2013-04-10 08:01:00,
2013-04-10 04:07:00,65.0,45.5,-100.00,SE,124,1.6,4.9,50,-99.99,,,-99.99,WSDL version 423,2013-04-10 08:07:00,
2013-04-10 04:13:00,65.1,44.7,-100.00,NE,34,0.6,4.3,47,-99.99,,,-99.99,WSDL version 423,2013-04-10 08:13:00,
2013-04-10 04:19:00,64.9,44.5,-100.00,SSW,205,0.5,2.2,47,-99.99,,,-99.99,WSDL version 423,2013-04-10 08:19:00,
2013-04-10 04:25:00,64.8,44.4,-100.00,SE,135,1.8,3.4,47,-99.99,,,-99.99,WSDL version 423,2013-04-10 08:25:00,
2013-04-10 04:31:00,64.5,43.3,-100.00,SSE,160,0.5,3.4,46,-99.99,,,-99.99,WSDL version 423,2013-04-10 08:31:00,
2013-04-10 04:37:00,64.1,42.4,-100.00,ESE,120,0.1,4.3,45,-99.99,,,-99.99,WSDL version 423,2013-04-10 08:37:00,
2013-04-10 04:43:00,63.6,41.9,-100.00,SE,130,1.7,3.8,45,-99.99,,,-99.99,WSDL version 423,2013-04-10 08:43:00,
2013-04-10 04:49:00,63.2,41.5,-100.00,ESE,110,0.4,3.8,45,-99.99,,,-99.99,WSDL version 423,2013-04-10 08:49:00,
2013-04-10 04:55:00,62.9,40.6,-100.00,SE,135,0.0,2.0,44,-99.99,,,-99.99,WSDL version 423,2013-04-10 08:55:00,
2013-04-10 05:01:00,62.4,40.6,-100.00,SE,135,0.0,1.1,45,-99.99,,,-99.99,WSDL version 423,2013-04-10 09:01:00,
2013-04-10 05:07:00,62.0,40.4,-100.00,SE,135,0.0,0.0,45,-99.99,,,-99.99,WSDL version 423,2013-04-10 09:07:00,
2013-04-10 05:13:00,61.5,40.0,-100.00,SE,135,0.0,0.0,45,-99.99,,,-99.99,WSDL version 423,2013-04-10 09:13:00,
2013-04-10 05:19:00,61.0,39.6,-100.00,SE,135,0.0,0.0,45,-99.99,,,-99.99,WSDL version 423,2013-04-10 09:19:00,
2013-04-10 05:25:00,60.7,39.3,-100.00,SE,135,0.0,0.0,45,0.00,,,0.00,WSDL version 423,2013-04-10 09:25:00,
2013-04-10 05:31:00,60.5,39.1,-100.00,South,180,0.0,0.0,45,-99.99,,,-99.99,WSDL version 423,2013-04-10 09:31:00,
2013-04-10 05:37:00,60.4,39.0,-100.00,SSW,197,0.0,0.0,45,-99.99,,,-99.99,WSDL version 423,2013-04-10 09:37:00,
2013-04-10 05:43:00,60.1,38.7,-100.00,NW,315,0.0,1.1,45,-99.99,,,-99.99,WSDL version 423,2013-04-10 09:43:00,
2013-04-10 05:49:00,59.8,38.4,-100.00,NW,315,0.0,1.1,45,-99.99,,,-99.99,WSDL version 423,2013-04-10 09:49:00,
2013-04-10 05:55:00,59.5,38.3,-100.00,NW,315,0.0,0.0,46,-99.99,,,-99.99,WSDL version 423,2013-04-10 09:55:00,
2013-04-10 06:01:00,59.4,38.6,-100.00,SW,225,0.0,1.3,46,0.00,,,0.00,WSDL version 423,2013-04-10 10:01:00,
2013-04-10 06:07:00,59.2,38.5,-100.00,ESE,113,0.0,1.3,46,0.00,,,0.00,WSDL version 423,2013-04-10 10:07:00,
2013-04-10 06:13:00,59.0,38.3,-100.00,East,93,0.0,0.0,46,0.00,,,0.00,WSDL version 423,2013-04-10 10:13:00,
2013-04-10 06:19:00,58.7,38.0,-100.00,NW,315,0.0,0.9,46,-99.99,,,-99.99,WSDL version 423,2013-04-10 10:19:00,
2013-04-10 06:25:00,58.5,37.8,-100.00,NW,315,0.0,0.0,46,0.00,,,0.00,WSDL version 423,2013-04-10 10:25:00,
2013-04-10 06:31:00,58.2,37.6,-100.00,WNW,298,0.0,0.0,46,0.00,,,0.00,WSDL version 423,2013-04-10 10:31:00,
2013-04-10 06:37:00,58.1,37.9,-100.00,East,90,0.0,0.0,47,-99.99,,,-99.99,WSDL version 423,2013-04-10 10:37:00,
2013-04-10 06:43:00,58.1,38.0,-100.00,East,90,0.0,0.0,47,-99.99,,,-99.99,WSDL version 423,2013-04-10 10:43:00,
2013-04-10 06:49:00,57.9,37.8,-100.00,West,270,0.0,0.0,47,0.00,,,0.00,WSDL version 423,2013-04-10 10:49:00,
2013-04-10 06:55:00,57.9,37.8,-100.00,NW,315,0.0,0.0,47,0.00,,,0.00,WSDL version 423,2013-04-10 10:55:00,
2013-04-10 07:01:00,57.9,37.8,-100.00,North,357,0.0,0.0,47,0.00,,,0.00,WSDL version 423,2013-04-10 11:01:00,
2013-04-10 07:07:00,57.9,37.8,-100.00,East,90,0.0,0.0,47,-99.99,,,-99.99,WSDL version 423,2013-04-10 11:07:00,
2013-04-10 07:13:00,58.1,38.2,-100.00,East,90,0.0,0.0,47,-99.99,,,-99.99,WSDL version 423,2013-04-10 11:13:00,
2013-04-10 07:19:00,58.4,38.5,-100.00,NNW,338,0.0,0.0,48,0.00,,,0.00,WSDL version 423,2013-04-10 11:19:00,
2013-04-10 07:25:00,58.5,38.9,-100.00,SSE,160,0.0,0.0,48,-99.99,,,-99.99,WSDL version 423,2013-04-10 11:25:00,
2013-04-10 07:31:00,58.9,39.1,-100.00,ESE,113,0.0,0.0,47,0.00,,,0.00,WSDL version 423,2013-04-10 11:31:00,
2013-04-10 07:37:00,59.3,39.2,-100.00,SSE,158,0.0,0.0,48,-99.99,,,-99.99,WSDL version 423,2013-04-10 11:37:00,
2013-04-10 07:43:00,59.8,39.8,-100.00,South,169,0.0,2.0,48,-99.99,,,-99.99,WSDL version 423,2013-04-10 11:43:00,
2013-04-10 07:49:00,60.0,39.8,-100.00,West,270,0.6,2.0,47,-99.99,,,-99.99,WSDL version 423,2013-04-10 11:49:00,
2013-04-10 07:55:00,60.6,40.3,-100.00,SW,223,0.0,1.6,47,-99.99,,,-99.99,WSDL version 423,2013-04-10 11:55:00,
2013-04-10 08:01:00,61.0,40.2,-100.00,West,270,0.8,2.7,46,-99.99,,,-99.99,WSDL version 423,2013-04-10 12:01:00,
2013-04-10 08:07:00,61.2,40.4,-100.00,ESE,120,0.1,2.7,46,-99.99,,,-99.99,WSDL version 423,2013-04-10 12:07:00,
2013-04-10 08:13:00,61.4,40.6,-100.00,North,350,0.0,2.2,46,-99.99,,,-99.99,WSDL version 423,2013-04-10 12:13:00,
2013-04-10 08:19:00,61.7,40.8,-100.00,West,270,1.8,2.9,46,0.00,,,0.00,WSDL version 423,2013-04-10 12:19:00,
2013-04-10 08:25:00,61.9,40.9,-100.00,West,270,0.0,2.9,46,-99.99,,,-99.99,WSDL version 423,2013-04-10 12:25:00,
2013-04-10 08:32:00,62.0,41.0,-100.00,ENE,65,0.5,1.6,46,-99.99,,,-99.99,WSDL version 423,2013-04-10 12:32:00,
2013-04-10 08:38:00,62.4,41.3,-100.00,NNW,330,0.4,1.6,46,0.00,,,0.00,WSDL version 423,2013-04-10 12:38:00,
2013-04-10 08:44:00,62.7,41.7,-100.00,NW,315,1.2,2.2,46,-99.99,,,-99.99,WSDL version 423,2013-04-10 12:44:00,
2013-04-10 08:50:00,62.8,41.4,-100.00,West,270,0.0,2.2,45,0.00,,,0.00,WSDL version 423,2013-04-10 12:50:00,
2013-04-10 08:57:00,63.0,41.6,-100.00,West,280,0.4,1.6,45,-99.99,,,-99.99,WSDL version 423,2013-04-10 12:57:00,
2013-04-10 09:02:00,63.2,41.6,-100.00,NW,315,0.0,1.6,45,0.00,,,0.00,WSDL version 423,2013-04-10 13:02:00,
2013-04-10 09:08:00,63.5,41.8,-100.00,NW,315,0.8,3.1,45,-99.99,,,-99.99,WSDL version 423,2013-04-10 13:08:00,
2013-04-10 09:14:00,64.2,42.4,-100.00,SW,235,0.1,3.1,45,-99.99,,,-99.99,WSDL version 423,2013-04-10 13:14:00,
2013-04-10 09:20:00,64.7,42.9,-100.00,WSW,243,1.1,2.9,45,-99.99,,,-99.99,WSDL version 423,2013-04-10 13:20:00,
2013-04-10 09:26:00,65.0,42.9,-100.00,ESE,107,1.3,2.9,45,-99.99,,,-99.99,WSDL version 423,2013-04-10 13:26:00,
2013-04-10 09:32:00,65.3,42.9,-100.00,ENE,73,1.0,2.5,44,-99.99,,,-99.99,WSDL version 423,2013-04-10 13:32:00,
2013-04-10 09:38:00,65.6,43.1,-100.00,SE,128,0.1,3.6,44,-99.99,,,-99.99,WSDL version 423,2013-04-10 13:38:00,
2013-04-10 09:44:00,66.4,43.9,-100.00,North,8,1.2,3.6,44,-99.99,,,-99.99,WSDL version 423,2013-04-10 13:44:00,
2013-04-10 09:50:00,66.7,44.2,-100.00,SW,231,0.7,2.9,44,-99.99,,,-99.99,WSDL version 423,2013-04-10 13:50:00,
2013-04-10 09:56:00,67.0,44.2,-100.00,NW,315,1.4,2.9,44,-99.99,,,-99.99,WSDL version 423,2013-04-10 13:56:00,
2013-04-10 10:02:00,67.7,44.9,-100.00,South,174,0.0,2.2,43,-99.99,,,-99.99,WSDL version 423,2013-04-10 14:02:00,
2013-04-10 10:08:00,68.2,44.9,-100.00,West,259,0.6,2.7,43,-99.99,,,-99.99,WSDL version 423,2013-04-10 14:08:00,
2013-04-10 10:14:00,68.9,45.5,-100.00,WNW,283,1.5,3.1,43,-99.99,,,-99.99,WSDL version 423,2013-04-10 14:14:00,
2013-04-10 10:20:00,69.4,45.9,-100.00,NNW,329,2.6,3.4,43,-99.99,,,-99.99,WSDL version 423,2013-04-10 14:20:00,
2013-04-10 10:26:00,69.4,46.0,-100.00,SW,225,0.7,3.4,43,-99.99,,,-99.99,WSDL version 423,2013-04-10 14:26:00,
2013-04-10 10:32:00,69.4,45.8,-100.00,NE,55,0.2,2.2,43,-99.99,,,-99.99,WSDL version 423,2013-04-10 14:32:00,
2013-04-10 10:38:00,70.0,45.8,-100.00,South,178,1.6,4.0,42,-99.99,,,-99.99,WSDL version 423,2013-04-10 14:38:00,
2013-04-10 10:44:00,70.1,46.0,-100.00,East,86,1.9,4.0,42,-99.99,,,-99.99,WSDL version 423,2013-04-10 14:44:00,
2013-04-10 10:50:00,71.4,47.0,-100.00,NW,315,1.6,3.6,41,-99.99,,,-99.99,WSDL version 423,2013-04-10 14:50:00,
2013-04-10 10:56:00,72.2,47.0,-100.00,WSW,240,1.3,3.6,41,-99.99,,,-99.99,WSDL version 423,2013-04-10 14:56:00,
2013-04-10 11:02:00,72.1,46.9,-100.00,South,173,1.8,3.4,40,-99.99,,,-99.99,WSDL version 423,2013-04-10 15:02:00,
2013-04-10 11:08:00,72.6,47.5,-100.00,NW,315,2.9,3.8,41,-99.99,,,-99.99,WSDL version 423,2013-04-10 15:08:00,
2013-04-10 11:14:00,73.6,47.5,-100.00,West,268,2.8,4.7,40,-99.99,,,-99.99,WSDL version 423,2013-04-10 15:14:00,
2013-04-10 11:21:00,73.6,47.3,-100.00,WNW,290,2.6,4.9,39,-99.99,,,-99.99,WSDL version 423,2013-04-10 15:21:00,
2013-04-10 11:26:00,73.9,47.4,-100.00,WNW,290,2.8,4.9,39,-99.99,,,-99.99,WSDL version 423,2013-04-10 15:26:00,
2013-04-10 11:32:00,74.5,48.0,-100.00,NNW,328,2.3,4.7,39,-99.99,,,-99.99,WSDL version 423,2013-04-10 15:32:00,
2013-04-10 11:38:00,74.3,47.4,-100.00,WNW,293,3.5,6.3,38,-99.99,,,-99.99,WSDL version 423,2013-04-10 15:38:00,
2013-04-10 11:44:00,74.3,47.7,-100.00,SSW,197,0.2,6.3,39,-99.99,,,-99.99,WSDL version 423,2013-04-10 15:44:00,
2013-04-10 11:50:00,74.5,47.9,-100.00,WNW,287,3.9,5.6,39,-99.99,,,-99.99,WSDL version 423,2013-04-10 15:50:00,
2013-04-10 11:56:00,74.5,47.8,-100.00,NW,315,3.0,4.9,38,-99.99,,,-99.99,WSDL version 423,2013-04-10 15:56:00,
2013-04-10 12:03:00,74.8,48.2,-100.00,West,270,2.4,4.3,39,-99.99,,,-99.99,WSDL version 423,2013-04-10 16:03:00,
2013-04-10 12:09:00,75.0,47.7,-100.00,West,267,2.5,4.9,38,-99.99,,,-99.99,WSDL version 423,2013-04-10 16:09:00,
2013-04-10 12:14:00,74.4,47.2,-100.00,NNE,23,1.8,5.8,38,-99.99,,,-99.99,WSDL version 423,2013-04-10 16:14:00,
2013-04-10 12:20:00,74.1,46.9,-100.00,NW,315,1.9,3.6,39,-99.99,,,-99.99,WSDL version 423,2013-04-10 16:20:00,
2013-04-10 12:27:00,74.8,48.2,-100.00,NW,321,2.7,3.6,39,-99.99,,,-99.99,WSDL version 423,2013-04-10 16:27:00,
2013-04-10 12:33:00,75.4,48.0,-100.00,NW,307,2.9,4.9,38,-99.99,,,-99.99,WSDL version 423,2013-04-10 16:33:00,
2013-04-10 12:38:00,75.3,47.9,-100.00,NW,318,2.5,5.6,38,-99.99,,,-99.99,WSDL version 423,2013-04-10 16:38:00,
2013-04-10 12:44:00,75.7,48.4,-100.00,WNW,293,1.4,6.0,38,-99.99,,,-99.99,WSDL version 423,2013-04-10 16:44:00,
2013-04-10 12:50:00,75.9,47.8,-100.00,South,180,1.6,6.0,37,-99.99,,,-99.99,WSDL version 423,2013-04-10 16:50:00,
2013-04-10 12:56:00,75.9,47.8,-100.00,West,276,3.1,4.3,37,-99.99,,,-99.99,WSDL version 423,2013-04-10 16:56:00,
2013-04-10 13:02:00,76.3,48.9,-100.00,NW,325,2.5,5.6,38,-99.99,,,-99.99,WSDL version 423,2013-04-10 17:02:00,
2013-04-10 13:08:00,76.7,48.8,-100.00,West,278,2.7,5.6,37,-99.99,,,-99.99,WSDL version 423,2013-04-10 17:08:00,
2013-04-10 13:14:00,76.5,48.3,-100.00,SW,236,1.6,5.4,37,-99.99,,,-99.99,WSDL version 423,2013-04-10 17:14:00,
2013-04-10 13:20:00,76.6,48.4,-100.00,WNW,283,3.4,5.8,37,-99.99,,,-99.99,WSDL version 423,2013-04-10 17:20:00,
2013-04-10 13:26:00,77.0,48.7,-100.00,NNW,338,1.8,6.0,37,-99.99,,,-99.99,WSDL version 423,2013-04-10 17:26:00,
2013-04-10 13:33:00,77.3,48.6,-100.00,WNW,293,4.1,7.6,36,-99.99,,,-99.99,WSDL version 423,2013-04-10 17:33:00,
2013-04-10 13:38:00,77.0,48.2,-100.00,NW,309,2.9,7.6,37,-99.99,,,-99.99,WSDL version 423,2013-04-10 17:38:00,
2013-04-10 13:44:00,77.1,48.2,-100.00,NW,321,3.9,6.3,36,-99.99,,,-99.99,WSDL version 423,2013-04-10 17:44:00,
2013-04-10 13:50:00,77.2,48.2,-100.00,WNW,295,4.2,7.6,36,-99.99,,,-99.99,WSDL version 423,2013-04-10 17:50:00,
2013-04-10 13:57:00,77.1,48.1,-100.00,WNW,290,4.5,7.6,36,-99.99,,,-99.99,WSDL version 423,2013-04-10 17:57:00,
2013-04-10 14:04:00,77.1,48.1,-100.00,West,273,4.9,7.6,36,-99.99,,,-99.99,WSDL version 423,2013-04-10 18:04:00,
2013-04-10 14:10:00,77.0,48.1,-100.00,WNW,301,3.0,6.0,36,-99.99,,,-99.99,WSDL version 423,2013-04-10 18:10:00,
2013-04-10 14:16:00,77.5,48.4,-100.00,NW,321,4.0,7.6,36,-99.99,,,-99.99,WSDL version 423,2013-04-10 18:16:00,
2013-04-10 14:22:00,78.0,48.4,-100.00,West,276,3.0,6.5,34,-99.99,,,-99.99,WSDL version 423,2013-04-10 18:22:00,
2013-04-10 14:28:00,77.9,48.1,-100.00,WNW,298,3.0,6.5,35,-99.99,,,-99.99,WSDL version 423,2013-04-10 18:28:00,
2013-04-10 14:34:00,78.2,48.4,-100.00,WNW,298,2.7,7.4,35,-99.99,,,-99.99,WSDL version 423,2013-04-10 18:34:00,
2013-04-10 14:40:00,78.4,48.6,-100.00,North,349,3.0,6.5,35,-99.99,,,-99.99,WSDL version 423,2013-04-10 18:40:00,
2013-04-10 14:46:00,77.4,47.3,-100.00,NW,315,3.5,6.5,35,-99.99,,,-99.99,WSDL version 423,2013-04-10 18:46:00,
2013-04-10 14:52:00,76.8,47.1,-100.00,NNW,330,4.7,7.6,35,-99.99,,,-99.99,WSDL version 423,2013-04-10 18:52:00,
2013-04-10 14:58:00,76.9,47.2,-100.00,NW,326,4.1,7.6,35,-99.99,,,-99.99,WSDL version 423,2013-04-10 18:58:00,
2013-04-10 15:04:00,75.8,46.2,-100.00,NNW,329,4.4,9.6,35,-99.99,,,-99.99,WSDL version 423,2013-04-10 19:04:00,
2013-04-10 15:10:00,75.1,46.3,-100.00,NW,318,4.2,6.5,36,-99.99,,,-99.99,WSDL version 423,2013-04-10 19:10:00,
2013-04-10 15:16:00,74.3,45.7,-100.00,WNW,303,3.4,7.8,37,-99.99,,,-99.99,WSDL version 423,2013-04-10 19:16:00,
2013-04-10 15:22:00,73.3,45.5,-100.00,WNW,293,3.2,7.8,37,-99.99,,,-99.99,WSDL version 423,2013-04-10 19:22:00,
2013-04-10 15:28:00,72.6,45.5,-100.00,NNW,330,4.0,6.5,38,-99.99,,,-99.99,WSDL version 423,2013-04-10 19:28:00,
2013-04-10 15:36:00,72.6,45.6,-100.00,NW,315,3.7,6.5,38,-99.99,,,-99.99,WSDL version 423,2013-04-10 19:36:00,
2013-04-10 15:42:00,73.7,46.3,-100.00,NW,321,4.4,6.5,37,-99.99,,,-99.99,WSDL version 423,2013-04-10 19:42:00,
2013-04-10 15:48:00,73.4,46.1,-100.00,West,281,3.4,7.4,38,-99.99,,,-99.99,WSDL version 423,2013-04-10 19:48:00,
2013-04-10 15:54:00,72.9,45.8,-100.00,NNW,328,3.4,7.8,38,-99.99,,,-99.99,WSDL version 423,2013-04-10 19:54:00,
2013-04-10 16:00:00,72.0,45.1,-100.00,NW,315,4.1,7.8,39,-99.99,,,-99.99,WSDL version 423,2013-04-10 20:00:00,
2013-04-10 16:06:00,70.8,44.6,-100.00,NW,326,4.4,8.1,39,-99.99,,,-99.99,WSDL version 423,2013-04-10 20:06:00,
2013-04-10 16:12:00,71.0,45.5,-100.00,WNW,300,4.2,7.4,40,-99.99,,,-99.99,WSDL version 423,2013-04-10 20:12:00,
2013-04-10 16:18:00,71.3,45.8,-100.00,NNW,343,4.5,8.7,40,-99.99,,,-99.99,WSDL version 423,2013-04-10 20:18:00,
2013-04-10 16:24:00,71.2,45.8,-100.00,West,264,4.0,7.8,40,-99.99,,,-99.99,WSDL version 423,2013-04-10 20:24:00,
2013-04-10 16:30:00,71.4,45.8,-100.00,NNW,338,3.4,7.6,40,-99.99,,,-99.99,WSDL version 423,2013-04-10 20:30:00,
2013-04-10 16:36:00,71.5,45.9,-100.00,NW,308,4.0,7.4,40,-99.99,,,-99.99,WSDL version 423,2013-04-10 20:36:00,
2013-04-10 16:42:00,71.1,45.6,-100.00,WNW,298,5.1,7.4,40,-99.99,,,-99.99,WSDL version 423,2013-04-10 20:42:00,
2013-04-10 16:48:00,70.5,45.1,-100.00,NW,307,3.5,6.5,40,0.00,,,0.00,WSDL version 423,2013-04-10 20:48:00,
2013-04-10 16:54:00,69.2,44.5,-100.00,NW,315,3.4,6.3,41,-99.99,,,-99.99,WSDL version 423,2013-04-10 20:54:00,
2013-04-10 17:00:00,68.3,44.0,-100.00,West,280,3.4,5.8,42,0.00,,,0.00,WSDL version 423,2013-04-10 21:00:00,
2013-04-10 17:06:00,68.0,44.1,-100.00,NNW,341,3.5,5.8,42,-99.99,,,-99.99,WSDL version 423,2013-04-10 21:06:00,
2013-04-10 17:12:00,67.5,44.2,-100.00,WNW,301,4.3,6.3,43,-99.99,,,-99.99,WSDL version 423,2013-04-10 21:12:00,
2013-04-10 17:18:00,67.0,43.8,-100.00,NW,312,3.9,6.3,43,-99.99,,,-99.99,WSDL version 423,2013-04-10 21:18:00,
2013-04-10 17:24:00,66.6,43.4,-100.00,NNW,343,4.4,8.5,43,-99.99,,,-99.99,WSDL version 423,2013-04-10 21:24:00,
2013-04-10 17:30:00,66.2,43.3,-100.00,NW,323,3.7,8.5,44,-99.99,,,-99.99,WSDL version 423,2013-04-10 21:30:00,
2013-04-10 17:36:00,65.3,42.9,-100.00,NW,308,3.4,7.6,44,-99.99,,,-99.99,WSDL version 423,2013-04-10 21:36:00,
2013-04-10 17:42:00,64.7,42.4,-100.00,North,355,3.1,5.8,44,-99.99,,,-99.99,WSDL version 423,2013-04-10 21:42:00,
2013-04-10 17:48:00,64.1,42.3,-100.00,NW,321,3.3,5.8,45,-99.99,,,-99.99,WSDL version 423,2013-04-10 21:48:00,
2013-04-10 17:56:00,63.3,41.8,-100.00,NNW,333,3.2,6.3,45,-99.99,,,-99.99,WSDL version 423,2013-04-10 21:56:00,
2013-04-10 18:02:00,62.9,41.9,-100.00,WNW,295,4.1,6.5,47,0.00,,,0.00,WSDL version 423,2013-04-10 22:02:00,
2013-04-10 18:08:00,62.0,41.0,-100.00,West,267,1.3,6.5,46,-99.99,,,-99.99,WSDL version 423,2013-04-10 22:08:00,
2013-04-10 18:14:00,61.7,40.7,-100.00,NW,326,3.4,6.0,46,0.00,,,0.00,WSDL version 423,2013-04-10 22:14:00,
2013-04-10 18:20:00,61.5,41.0,-100.00,WNW,298,2.5,6.0,47,-99.99,,,-99.99,WSDL version 423,2013-04-10 22:20:00,
2013-04-10 18:26:00,61.4,41.0,-100.00,NW,305,1.6,4.0,47,0.00,,,0.00,WSDL version 423,2013-04-10 22:26:00,
2013-04-10 18:32:00,61.3,41.0,-100.00,NW,326,1.5,4.3,47,0.00,,,0.00,WSDL version 423,2013-04-10 22:32:00,
2013-04-10 18:38:00,61.1,40.7,-100.00,NNW,345,2.4,4.3,47,0.00,,,0.00,WSDL version 423,2013-04-10 22:38:00,
2013-04-10 18:44:00,60.6,40.6,-100.00,WNW,290,2.6,4.7,48,-99.99,,,-99.99,WSDL version 423,2013-04-10 22:44:00,
2013-04-10 18:50:00,60.2,40.5,-100.00,SSW,205,0.0,5.6,48,0.00,,,0.00,WSDL version 423,2013-04-10 22:50:00,
2013-04-10 18:56:00,60.2,42.3,-100.00,East,96,4.1,7.8,55,0.00,,,0.00,WSDL version 423,2013-04-10 22:56:00,
2013-04-10 19:02:00,60.2,43.7,-100.00,SW,214,2.9,8.7,53,0.00,,,0.00,WSDL version 423,2013-04-10 23:02:00,
2013-04-10 19:08:00,60.9,43.2,-100.00,WNW,298,2.6,6.7,51,-99.99,,,-99.99,WSDL version 423,2013-04-10 23:08:00,
2013-04-10 19:14:00,61.3,42.5,-100.00,NE,34,0.5,3.6,50,-99.99,,,-99.99,WSDL version 423,2013-04-10 23:14:00,
2013-04-10 19:20:00,61.5,43.4,-100.00,NNW,330,0.9,2.7,53,-99.99,,,-99.99,WSDL version 423,2013-04-10 23:20:00,
2013-04-10 19:26:00,60.9,45.2,-100.00,WNW,293,2.3,4.9,57,0.08,,,0.08,WSDL version 423,2013-04-10 23:26:00,
2013-04-10 19:32:00,60.1,44.4,-100.00,WNW,293,1.9,4.3,56,-99.99,,,-99.99,WSDL version 423,2013-04-10 23:32:00,
2013-04-10 19:38:00,59.7,44.5,-100.00,NW,315,2.6,4.0,58,-99.99,,,-99.99,WSDL version 423,2013-04-10 23:38:00,
2013-04-10 19:44:00,59.7,45.6,-100.00,NW,305,2.8,4.0,59,-99.99,,,-99.99,WSDL version 423,2013-04-10 23:44:00,
2013-04-10 19:50:00,59.7,45.7,-100.00,WNW,288,2.9,5.4,60,-99.99,,,-99.99,WSDL version 423,2013-04-10 23:50:00,
2013-04-10 19:56:00,59.5,46.0,-100.00,NW,309,1.9,5.4,62,-99.99,,,-99.99,WSDL version 423,2013-04-10 23:56:00,
2013-04-10 20:02:00,59.5,46.7,-100.00,WNW,287,1.3,4.0,62,-99.99,,,-99.99,WSDL version 423,2013-04-11 00:02:00,
2013-04-10 20:08:00,59.4,46.7,-100.00,NNW,340,2.3,4.9,63,-99.99,,,-99.99,WSDL version 423,2013-04-11 00:08:00,
2013-04-10 20:14:00,59.4,46.6,-100.00,NNW,340,0.5,4.9,62,-99.99,,,-99.99,WSDL version 423,2013-04-11 00:14:00,
2013-04-10 20:20:00,59.3,46.3,-100.00,NW,312,0.0,3.1,62,-99.99,,,-99.99,WSDL version 423,2013-04-11 00:20:00,
2013-04-10 20:26:00,59.4,46.0,-100.00,NW,325,2.2,4.9,62,0.08,,,0.17,WSDL version 423,2013-04-11 00:26:00,
2013-04-10 20:32:00,59.2,46.8,-100.00,NW,315,1.8,4.9,63,0.08,,,0.17,WSDL version 423,2013-04-11 00:32:00,
2013-04-10 20:38:00,58.9,46.0,-100.00,South,180,0.0,3.4,62,0.08,,,0.17,WSDL version 423,2013-04-11 00:38:00,
2013-04-10 20:44:00,58.6,45.8,-100.00,SE,146,0.0,1.6,63,-99.99,,,-99.99,WSDL version 423,2013-04-11 00:44:00,
2013-04-10 20:50:00,58.6,45.9,-100.00,WNW,290,0.9,1.6,63,-99.99,,,-99.99,WSDL version 423,2013-04-11 00:50:00,
2013-04-10 20:56:00,58.5,46.2,-100.00,East,79,0.7,2.2,64,-99.99,,,-99.99,WSDL version 423,2013-04-11 00:56:00,
2013-04-10 21:02:00,58.5,46.3,-100.00,WNW,289,0.0,2.2,64,-99.99,,,-99.99,WSDL version 423,2013-04-11 01:02:00,
2013-04-10 21:08:00,58.4,46.5,-100.00,SW,233,0.1,2.2,64,0.00,,,0.17,WSDL version 423,2013-04-11 01:08:00,
2013-04-10 21:16:00,58.2,46.1,-100.00,NNW,335,2.1,2.9,65,0.00,,,0.17,WSDL version 423,2013-04-11 01:16:00,
2013-04-10 21:22:00,58.1,46.4,-100.00,West,267,1.6,2.9,65,0.00,,,0.17,WSDL version 423,2013-04-11 01:22:00,
2013-04-10 21:28:00,57.8,46.2,-100.00,NNW,332,2.3,3.8,65,-99.99,,,-99.99,WSDL version 423,2013-04-11 01:28:00,
2013-04-10 21:34:00,57.7,46.0,-100.00,WNW,293,1.0,3.6,65,-99.99,,,-99.99,WSDL version 423,2013-04-11 01:34:00,
2013-04-10 21:42:00,57.5,46.4,-100.00,NW,321,2.8,5.6,67,-99.99,,,-99.99,WSDL version 423,2013-04-11 01:42:00,
2013-04-10 21:48:00,57.2,46.3,-100.00,WNW,284,2.3,4.5,67,-99.99,,,-99.99,WSDL version 423,2013-04-11 01:48:00,
2013-04-10 21:54:00,57.1,45.9,-100.00,WNW,298,2.9,4.0,66,0.00,,,0.17,WSDL version 423,2013-04-11 01:54:00,
2013-04-10 22:00:00,57.2,46.0,-100.00,NW,307,3.0,4.9,66,-99.99,,,-99.99,WSDL version 423,2013-04-11 02:00:00,
2013-04-10 22:08:00,57.3,47.3,-100.00,ESE,118,5.0,9.6,75,-99.99,,,-99.99,WSDL version 423,2013-04-11 02:08:00,
2013-04-10 22:14:00,57.5,51.0,-100.00,NW,304,3.6,9.6,78,-99.99,,,-99.99,WSDL version 423,2013-04-11 02:14:00,
2013-04-10 22:20:00,57.7,49.3,-100.00,SE,143,1.1,8.7,73,0.04,,,0.21,WSDL version 423,2013-04-11 02:20:00,
2013-04-10 22:26:00,57.6,48.4,-100.00,South,169,0.9,2.9,72,0.08,,,0.25,WSDL version 423,2013-04-11 02:26:00,
2013-04-10 22:32:00,57.5,48.9,-100.00,South,172,1.5,2.9,73,0.17,,,0.33,WSDL version 423,2013-04-11 02:32:00,
2013-04-10 22:38:00,57.4,48.6,-100.00,SSE,168,0.0,2.9,72,0.17,,,0.33,WSDL version 423,2013-04-11 02:38:00,
2013-04-10 22:44:00,57.6,48.5,-100.00,North,354,0.8,2.7,71,-99.99,,,-99.99,WSDL version 423,2013-04-11 02:44:00,
2013-04-10 22:50:00,57.6,48.3,-100.00,North,350,0.6,2.7,71,0.21,,,0.37,WSDL version 423,2013-04-11 02:50:00,
2013-04-10 22:56:00,57.7,48.4,-100.00,East,93,0.0,2.7,71,0.21,,,0.37,WSDL version 423,2013-04-11 02:56:00,
2013-04-10 23:02:00,57.7,48.4,-100.00,WSW,250,0.0,1.3,71,-99.99,,,-99.99,WSDL version 423,2013-04-11 03:02:00,
2013-04-10 23:08:00,57.7,48.4,-100.00,ESE,110,0.0,0.9,71,-99.99,,,-99.99,WSDL version 423,2013-04-11 03:08:00,
2013-04-10 23:14:00,57.7,48.4,-100.00,SE,135,0.0,0.9,71,-99.99,,,-99.99,WSDL version 423,2013-04-11 03:14:00,
2013-04-10 23:20:00,57.7,48.4,-100.00,North,360,0.0,1.1,71,0.21,,,0.41,WSDL version 423,2013-04-11 03:20:00,
2013-04-10 23:26:00,57.8,48.4,-100.00,NW,307,0.0,0.0,71,-99.99,,,-99.99,WSDL version 423,2013-04-11 03:26:00,
2013-04-10 23:32:00,57.9,48.9,-100.00,NW,315,0.0,1.3,72,-99.99,,,-99.99,WSDL version 423,2013-04-11 03:32:00,
2013-04-10 23:38:00,57.9,48.9,-100.00,NW,323,0.0,1.3,72,-99.99,,,-99.99,WSDL version 423,2013-04-11 03:38:00,
2013-04-10 23:44:00,57.7,48.4,-100.00,NW,315,0.4,1.6,71,-99.99,,,-99.99,WSDL version 423,2013-04-11 03:44:00,
2013-04-10 23:51:00,57.9,49.0,-100.00,NNW,344,1.8,3.6,72,0.04,,,0.41,WSDL version 423,2013-04-11 03:51:00,
2013-04-10 23:57:00,57.9,49.0,-100.00,West,270,0.0,3.6,72,-99.99,,,-99.99,WSDL version 423,2013-04-11 03:57:00,